Time;durP1;ratioP1;P1;durP2;ratioP2;P2;SDS_P1;SDS_P2;PMS_P1;PMS_P2;Temp;Humidity;BMP_temperature;BMP_pressure;BME280_temperature;BME280_humidity;BME280_pressure;Samples;Min_cycle;Max_cycle;Signal;HPM_P1;HPM_P2
2023/02/28 00:00:11;;;;;;;12.98;4.07;;;4.10;92.70;;;;;;5051050;28;20087;-71
2023/02/28 00:02:42;;;;;;;9.43;3.75;;;4.10;92.90;;;;;;5052228;28;20036;-74
2023/02/28 00:05:09;;;;;;;9.10;3.58;;;4.00;93.00;;;;;;5052438;28;20032;-71
2023/02/28 00:07:36;;;;;;;9.70;3.88;;;3.90;93.00;;;;;;5052104;28;20037;-70
2023/02/28 00:10:04;;;;;;;8.05;2.70;;;4.10;92.90;;;;;;5051912;28;20116;-72
2023/02/28 00:12:30;;;;;;;10.25;3.88;;;3.90;93.00;;;;;;5051968;28;20029;-72
2023/02/28 00:14:55;;;;;;;6.93;3.55;;;3.90;93.30;;;;;;5052157;28;20051;-72
2023/02/28 00:17:21;;;;;;;11.38;3.92;;;3.90;93.30;;;;;;5052150;28;20116;-72
2023/02/28 00:19:51;;;;;;;7.75;4.15;;;3.80;93.30;;;;;;5051365;28;20021;-71
2023/02/28 00:22:18;;;;;;;7.72;4.05;;;3.70;93.30;;;;;;5050913;28;20507;-71
2023/02/28 00:24:45;;;;;;;7.93;3.72;;;3.80;93.60;;;;;;5050716;28;20052;-72
2023/02/28 00:27:11;;;;;;;9.23;4.35;;;3.70;93.60;;;;;;5051613;28;20433;-71
2023/02/28 00:29:37;;;;;;;7.80;4.10;;;3.70;93.50;;;;;;5049614;28;20127;-71
2023/02/28 00:32:03;;;;;;;13.52;4.72;;;3.60;93.70;;;;;;5050938;28;20114;-71
2023/02/28 00:34:29;;;;;;;9.77;3.85;;;3.70;93.80;;;;;;5050446;28;20025;-73
2023/02/28 00:36:55;;;;;;;7.70;3.50;;;3.70;93.70;;;;;;5051457;28;20415;-71
2023/02/28 00:39:21;;;;;;;8.40;3.55;;;3.70;93.70;;;;;;5050555;28;20033;-72
2023/02/28 00:41:47;;;;;;;11.38;3.72;;;3.70;93.80;;;;;;5051712;28;20117;-71
2023/02/28 00:44:13;;;;;;;7.80;4.00;;;3.70;93.90;;;;;;5051799;28;20025;-71
2023/02/28 00:46:39;;;;;;;11.88;3.60;;;3.80;93.90;;;;;;5051885;28;20039;-71
2023/02/28 00:49:04;;;;;;;14.15;4.00;;;3.70;94.00;;;;;;5050656;28;20106;-71
2023/02/28 00:51:30;;;;;;;5.75;3.20;;;3.70;93.90;;;;;;5051252;28;20416;-70
2023/02/28 00:53:56;;;;;;;7.28;3.35;;;3.80;94.00;;;;;;5051203;28;20025;-72
2023/02/28 00:56:22;;;;;;;9.35;3.42;;;3.80;93.90;;;;;;5051342;28;20025;-72
2023/02/28 00:58:48;;;;;;;7.85;3.50;;;3.80;94.00;;;;;;5051998;28;20037;-71
2023/02/28 01:01:14;;;;;;;7.47;3.38;;;3.80;94.00;;;;;;5051236;28;20029;-71
2023/02/28 01:03:39;;;;;;;6.63;3.20;;;3.80;94.00;;;;;;5050853;28;20036;-70
2023/02/28 01:06:05;;;;;;;6.70;3.40;;;3.80;94.10;;;;;;5050138;28;20025;-71
2023/02/28 01:08:31;;;;;;;12.15;3.65;;;3.60;94.20;;;;;;5050330;28;20364;-71
2023/02/28 01:10:56;;;;;;;9.40;4.05;;;3.70;94.30;;;;;;5050787;28;20300;-71
2023/02/28 01:13:23;;;;;;;10.13;4.22;;;3.60;94.30;;;;;;5050573;28;20041;-71
2023/02/28 01:15:54;;;;;;;9.70;3.88;;;3.50;94.40;;;;;;5050653;28;20029;-71
2023/02/28 01:18:20;;;;;;;7.40;3.47;;;3.40;94.50;;;;;;5049457;28;20487;-71
2023/02/28 01:20:46;;;;;;;11.80;3.22;;;3.40;94.90;;;;;;5049211;28;20317;-71
2023/02/28 01:23:11;;;;;;;9.90;3.30;;;3.40;94.70;;;;;;5050855;28;20021;-71
2023/02/28 01:25:37;;;;;;;6.90;3.58;;;3.40;94.70;;;;;;5050695;28;20033;-71
2023/02/28 01:28:05;;;;;;;6.55;3.40;;;3.60;94.80;;;;;;5050336;28;20079;-71
2023/02/28 01:30:31;;;;;;;7.28;3.40;;;3.30;94.70;;;;;;5050246;28;20041;-72
2023/02/28 01:32:57;;;;;;;14.90;3.90;;;3.30;94.80;;;;;;5050615;28;20033;-71
2023/02/28 01:35:22;;;;;;;9.15;3.60;;;3.20;95.00;;;;;;5050346;28;20033;-71
2023/02/28 01:37:48;;;;;;;8.70;3.83;;;3.10;95.20;;;;;;5050580;28;20079;-71
2023/02/28 01:40:14;;;;;;;6.43;3.40;;;3.10;95.20;;;;;;5050132;28;20056;-71
2023/02/28 01:42:39;;;;;;;7.13;3.78;;;3.10;95.30;;;;;;5050156;28;20482;-71
2023/02/28 01:45:28;;;;;;;11.18;3.72;;;3.00;95.40;;;;;;5050177;28;20049;-69
2023/02/28 01:48:07;;;;;;;11.48;3.80;;;3.00;95.50;;;;;;5050073;28;20025;-69
2023/02/28 01:50:39;;;;;;;5.28;3.17;;;3.10;95.50;;;;;;5052648;28;20060;-71
2023/02/28 01:53:08;;;;;;;8.23;3.50;;;3.10;95.40;;;;;;5054619;28;20025;-72
2023/02/28 01:55:35;;;;;;;11.70;3.92;;;3.00;95.40;;;;;;5054384;28;20098;-69
2023/02/28 01:58:03;;;;;;;8.07;3.83;;;3.00;95.40;;;;;;5054257;28;20479;-71
2023/02/28 02:00:30;;;;;;;9.32;3.28;;;2.90;95.50;;;;;;5053023;28;20421;-70
2023/02/28 02:02:59;;;;;;;8.33;3.57;;;3.00;95.60;;;;;;5054002;28;20097;-70
2023/02/28 02:05:30;;;;;;;8.80;3.55;;;3.00;95.40;;;;;;5053967;28;20115;-71
2023/02/28 02:08:01;;;;;;;5.97;3.40;;;3.10;95.20;;;;;;5054348;28;20447;-71
2023/02/28 02:10:41;;;;;;;8.90;4.43;;;3.00;95.40;;;;;;5053731;28;20040;-71
2023/02/28 02:13:13;;;;;;;10.70;3.85;;;3.00;95.60;;;;;;5053673;28;20032;-70
2023/02/28 02:15:53;;;;;;;10.57;3.95;;;2.90;95.50;;;;;;5053695;28;20051;-70
2023/02/28 02:18:37;;;;;;;16.45;3.60;;;3.00;95.50;;;;;;5052506;28;20045;-70
2023/02/28 02:21:21;;;;;;;9.18;3.55;;;3.00;95.40;;;;;;5053681;28;20028;-69
2023/02/28 02:24:02;;;;;;;9.82;3.33;;;3.00;95.50;;;;;;5053550;28;20459;-70
2023/02/28 02:26:46;;;;;;;11.18;4.07;;;3.00;95.20;;;;;;5053508;28;20530;-70
2023/02/28 02:29:36;;;;;;;10.55;3.90;;;3.00;94.90;;;;;;5053095;28;20032;-67
2023/02/28 02:32:35;;;;;;;8.52;3.42;;;3.00;95.40;;;;;;5053950;28;20052;-69
2023/02/28 02:35:03;;;;;;;10.13;3.60;;;2.90;95.60;;;;;;5056553;28;20423;-70
2023/02/28 02:37:40;;;;;;;7.57;3.40;;;2.90;95.70;;;;;;5093530;28;20028;-70
2023/02/28 02:40:23;;;;;;;7.55;3.75;;;3.00;95.70;;;;;;5093437;28;20043;-71
2023/02/28 02:42:56;;;;;;;6.97;3.60;;;2.90;95.60;;;;;;5093577;28;20028;-70
2023/02/28 02:45:43;;;;;;;6.50;3.40;;;2.90;95.60;;;;;;5092539;28;20040;-71
2023/02/28 02:48:13;;;;;;;10.95;4.47;;;2.80;95.80;;;;;;5093370;28;20058;-70
2023/02/28 02:50:44;;;;;;;7.63;4.15;;;2.80;95.80;;;;;;5092069;28;20377;-73
2023/02/28 02:53:12;;;;;;;11.52;4.38;;;2.90;95.50;;;;;;5093694;28;20020;-72
2023/02/28 02:55:43;;;;;;;12.00;5.07;;;3.00;95.20;;;;;;5093842;28;20525;-71
2023/02/28 02:58:14;;;;;;;12.27;5.10;;;3.10;95.10;;;;;;5093421;28;20489;-71
2023/02/28 03:00:44;;;;;;;14.38;5.38;;;3.20;94.80;;;;;;5092978;28;20531;-71
2023/02/28 03:03:12;;;;;;;11.82;5.20;;;3.30;94.90;;;;;;5091546;28;20039;-71
2023/02/28 03:05:50;;;;;;;10.40;5.13;;;3.20;95.10;;;;;;5093131;28;20114;-71
2023/02/28 03:08:17;;;;;;;10.40;5.07;;;3.30;94.70;;;;;;5092702;28;20054;-72
2023/02/28 03:10:46;;;;;;;10.88;4.88;;;3.30;94.80;;;;;;5093445;28;20486;-72
2023/02/28 03:13:48;;;;;;;10.00;4.93;;;3.40;94.90;;;;;;5092978;28;20353;-71
2023/02/28 03:16:35;;;;;;;10.23;5.18;;;3.40;94.70;;;;;;5091713;28;20024;-71
2023/02/28 03:19:30;;;;;;;11.40;4.75;;;3.40;94.50;;;;;;5091861;28;20377;-71
2023/02/28 03:22:28;;;;;;;9.68;4.85;;;3.40;94.50;;;;;;5092512;28;20032;-71
2023/02/28 03:25:38;;;;;;;9.48;4.78;;;3.40;94.70;;;;;;5092557;28;20032;-71
2023/02/28 03:28:12;;;;;;;10.18;4.75;;;3.40;94.80;;;;;;5010383;28;20472;-71
2023/02/28 03:30:46;;;;;;;10.15;4.30;;;3.40;94.50;;;;;;5010372;28;20128;-72
2023/02/28 03:33:17;;;;;;;9.98;4.32;;;3.40;94.70;;;;;;5061181;28;20113;-71
2023/02/28 03:36:12;;;;;;;10.32;5.22;;;3.20;95.00;;;;;;5092608;28;20454;-71
2023/02/28 03:38:46;;;;;;;10.63;4.50;;;3.00;95.40;;;;;;5092646;28;20032;-71
2023/02/28 03:41:22;;;;;;;10.02;4.50;;;2.80;95.60;;;;;;5092819;28;20047;-71
2023/02/28 03:44:02;;;;;;;11.68;4.78;;;2.70;96.00;;;;;;5092468;28;20032;-70
2023/02/28 03:46:32;;;;;;;9.90;3.90;;;2.60;96.20;;;;;;5092373;28;20081;-70
2023/02/28 03:49:27;;;;;;;8.20;4.20;;;2.60;96.30;;;;;;5092159;28;20040;-71
2023/02/28 03:51:57;;;;;;;12.98;4.28;;;2.80;96.40;;;;;;5089875;28;20032;-71
2023/02/28 03:54:30;;;;;;;11.10;4.22;;;2.50;96.40;;;;;;5090859;28;20373;-71
2023/02/28 03:57:13;;;;;;;7.95;4.15;;;2.50;96.40;;;;;;5092084;28;20024;-71
2023/02/28 03:59:47;;;;;;;10.32;4.32;;;2.50;96.40;;;;;;5091980;28;20035;-70
2023/02/28 04:02:13;;;;;;;12.23;4.32;;;2.50;96.50;;;;;;5091880;28;20469;-71
2023/02/28 04:04:44;;;;;;;11.05;4.65;;;2.50;96.50;;;;;;5092246;28;20031;-71
2023/02/28 04:07:11;;;;;;;8.10;4.40;;;2.50;96.50;;;;;;5092117;28;20587;-71
2023/02/28 04:09:37;;;;;;;10.40;4.65;;;2.40;96.50;;;;;;5091548;28;20036;-71
2023/02/28 04:12:03;;;;;;;12.30;4.55;;;2.40;96.50;;;;;;5091965;28;20020;-70
2023/02/28 04:14:29;;;;;;;7.38;4.05;;;2.40;96.60;;;;;;5091886;28;20017;-70
2023/02/28 04:16:55;;;;;;;6.80;4.20;;;2.40;96.60;;;;;;5091174;28;20019;-70
2023/02/28 04:19:20;;;;;;;9.18;4.88;;;2.40;96.50;;;;;;5091482;28;20032;-71
2023/02/28 04:21:49;;;;;;;9.52;4.22;;;2.40;96.10;;;;;;5091598;28;20107;-71
2023/02/28 04:24:21;;;;;;;9.60;4.38;;;2.50;96.30;;;;;;5091477;28;20347;-71
2023/02/28 04:26:49;;;;;;;11.55;4.68;;;2.40;96.30;;;;;;5091308;28;20032;-71
2023/02/28 04:29:28;;;;;;;12.23;4.60;;;2.50;96.30;;;;;;5091316;28;20036;-69
2023/02/28 04:31:54;;;;;;;9.40;4.70;;;2.40;96.40;;;;;;5091647;28;20089;-70
2023/02/28 04:34:21;;;;;;;9.60;4.53;;;2.30;96.50;;;;;;5091451;28;20378;-72
2023/02/28 04:36:50;;;;;;;11.48;4.95;;;2.20;96.50;;;;;;5091434;28;20086;-71
2023/02/28 04:39:18;;;;;;;11.95;4.68;;;2.30;96.70;;;;;;5091351;28;20028;-71
2023/02/28 04:41:44;;;;;;;8.70;4.30;;;2.30;96.80;;;;;;5091295;28;20461;-71
2023/02/28 04:44:10;;;;;;;14.48;4.40;;;2.30;96.60;;;;;;5091790;28;20031;-71
2023/02/28 04:46:35;;;;;;;11.55;4.45;;;2.30;96.50;;;;;;5091286;28;20032;-71
2023/02/28 04:49:01;;;;;;;8.32;4.10;;;2.30;96.60;;;;;;5089886;28;20035;-70
2023/02/28 04:51:27;;;;;;;12.65;4.55;;;2.20;96.40;;;;;;5091180;28;20032;-71
2023/02/28 04:53:53;;;;;;;7.05;4.60;;;2.10;96.70;;;;;;5091011;28;20357;-70
2023/02/28 04:56:18;;;;;;;9.00;4.38;;;2.30;96.80;;;;;;5091159;28;20020;-71
2023/02/28 04:58:45;;;;;;;9.02;4.18;;;2.00;96.90;;;;;;5090749;28;20043;-72
2023/02/28 05:01:23;;;;;;;7.82;4.00;;;2.00;96.70;;;;;;5090853;28;20082;-70
2023/02/28 05:03:50;;;;;;;16.00;4.90;;;2.10;96.60;;;;;;5090832;28;20033;-71
2023/02/28 05:06:16;;;;;;;12.15;4.85;;;2.00;96.60;;;;;;5090909;28;20042;-71
2023/02/28 05:08:42;;;;;;;11.20;4.63;;;2.00;96.60;;;;;;5090795;28;20346;-70
2023/02/28 05:11:17;;;;;;;12.52;5.22;;;2.00;96.70;;;;;;5090080;28;20028;-70
2023/02/28 05:13:43;;;;;;;8.77;4.43;;;2.00;96.70;;;;;;5090874;28;20459;-71
2023/02/28 05:16:09;;;;;;;12.02;4.38;;;2.00;96.80;;;;;;5090702;28;20028;-71
2023/02/28 05:18:35;;;;;;;10.25;4.72;;;2.00;96.50;;;;;;5090567;28;20547;-71
2023/02/28 05:21:03;;;;;;;13.00;4.88;;;2.00;96.90;;;;;;5090604;28;20176;-72
2023/02/28 05:23:29;;;;;;;9.13;4.43;;;2.00;96.80;;;;;;5090262;28;20452;-72
2023/02/28 05:25:54;;;;;;;10.07;4.50;;;2.10;96.00;;;;;;5089277;28;20020;-71
2023/02/28 05:28:20;;;;;;;7.95;4.63;;;2.20;95.90;;;;;;5090421;28;20025;-71
2023/02/28 05:30:46;;;;;;;9.38;4.35;;;2.20;96.20;;;;;;5090247;28;20048;-72
2023/02/28 05:33:13;;;;;;;11.00;4.28;;;2.20;96.10;;;;;;5089303;28;20085;-71
2023/02/28 05:35:40;;;;;;;13.82;4.40;;;2.20;95.80;;;;;;5089233;28;20331;-71
2023/02/28 05:38:06;;;;;;;12.23;4.78;;;2.30;95.70;;;;;;5091019;28;20501;-71
2023/02/28 05:40:32;;;;;;;8.13;4.43;;;2.30;95.70;;;;;;5089395;28;20048;-71
2023/02/28 05:42:58;;;;;;;11.68;4.25;;;2.40;95.60;;;;;;5090333;28;20091;-71
2023/02/28 05:45:23;;;;;;;7.70;3.75;;;2.30;95.60;;;;;;5090307;28;20334;-71
2023/02/28 05:47:52;;;;;;;9.43;4.22;;;2.00;95.50;;;;;;5089184;28;20032;-71
2023/02/28 05:50:18;;;;;;;9.43;3.90;;;2.00;95.70;;;;;;5089117;28;20039;-71
2023/02/28 05:52:44;;;;;;;8.20;4.20;;;1.90;95.80;;;;;;5090542;28;20012;-71
2023/02/28 05:55:09;;;;;;;10.18;4.47;;;1.90;95.70;;;;;;5090056;28;20046;-71
2023/02/28 05:57:35;;;;;;;5.72;3.60;;;2.00;95.70;;;;;;5090175;28;20107;-72
2023/02/28 06:00:02;;;;;;;13.00;4.70;;;1.90;95.90;;;;;;5090166;28;20123;-72
2023/02/28 06:02:28;;;;;;;9.27;4.25;;;1.80;96.30;;;;;;5090322;28;20012;-71
2023/02/28 06:04:53;;;;;;;8.68;4.00;;;1.80;96.10;;;;;;5090496;28;20020;-70
2023/02/28 06:07:19;;;;;;;11.00;4.40;;;1.80;96.10;;;;;;5090149;28;20028;-71
2023/02/28 06:09:45;;;;;;;8.68;4.07;;;1.80;96.10;;;;;;5089800;28;20127;-70
2023/02/28 06:12:10;;;;;;;19.50;4.13;;;1.80;96.20;;;;;;5090142;28;20498;-71
2023/02/28 06:14:36;;;;;;;15.30;4.68;;;1.80;96.30;;;;;;5089925;28;20036;-71
2023/02/28 06:17:02;;;;;;;8.63;4.25;;;1.70;96.30;;;;;;5089807;28;20024;-71
2023/02/28 06:19:29;;;;;;;10.52;4.82;;;1.70;96.30;;;;;;5090104;28;20459;-71
2023/02/28 06:21:56;;;;;;;11.60;4.55;;;1.70;96.30;;;;;;5089041;28;20036;-71
2023/02/28 06:24:24;;;;;;;11.83;4.53;;;1.70;96.40;;;;;;5090097;28;20203;-71
2023/02/28 06:26:50;;;;;;;9.38;4.93;;;1.60;96.40;;;;;;5089958;28;20470;-72
2023/02/28 06:29:18;;;;;;;14.85;4.32;;;1.60;96.50;;;;;;5089843;28;20243;-71
2023/02/28 06:31:46;;;;;;;10.63;4.18;;;1.60;96.50;;;;;;5090609;28;20058;-74
2023/02/28 06:34:13;;;;;;;24.23;7.75;;;1.60;96.50;;;;;;5089636;28;20032;-72
2023/02/28 06:36:40;;;;;;;11.93;4.82;;;1.70;96.50;;;;;;5090703;28;20095;-71
2023/02/28 06:39:07;;;;;;;15.85;4.82;;;1.70;96.30;;;;;;5093682;28;20422;-71
2023/02/28 06:41:37;;;;;;;12.93;4.68;;;1.90;95.90;;;;;;5093513;28;20151;-70
2023/02/28 06:44:05;;;;;;;13.65;4.45;;;1.90;95.90;;;;;;5094041;28;20115;-71
2023/02/28 06:46:31;;;;;;;;;;;1.90;95.90;;;;;;5093992;28;20046;-71
2023/02/28 06:48:56;;;;;;;12.43;4.88;;;2.00;95.90;;;;;;5092280;28;20358;-70
2023/02/28 06:51:24;;;;;;;24.15;5.03;;;2.10;95.80;;;;;;5092272;28;20044;-71
2023/02/28 06:53:50;;;;;;;8.68;4.38;;;2.10;96.10;;;;;;5093475;28;20081;-71
2023/02/28 06:56:17;;;;;;;10.57;4.40;;;2.10;95.80;;;;;;5092607;28;20048;-70
2023/02/28 06:58:47;;;;;;;10.90;4.82;;;2.10;95.80;;;;;;5093922;28;20028;-72
2023/02/28 07:01:13;;;;;;;17.23;5.20;;;2.20;95.60;;;;;;5093399;28;20056;-70
2023/02/28 07:03:39;;;;;;;14.02;4.85;;;2.30;95.40;;;;;;5093104;28;20257;-71
2023/02/28 07:06:06;;;;;;;11.75;5.22;;;2.50;95.70;;;;;;5092040;28;20034;-70
2023/02/28 07:08:33;;;;;;;11.40;5.40;;;2.50;95.50;;;;;;5061473;28;20069;-71
2023/02/28 07:10:58;;;;;;;8.13;4.38;;;2.50;95.60;;;;;;5053315;28;20032;-74
2023/02/28 07:13:24;;;;;;;11.55;4.50;;;2.50;95.80;;;;;;5052865;28;20083;-73
2023/02/28 07:15:55;;;;;;;12.45;4.53;;;2.50;95.60;;;;;;5053078;28;20470;-74
2023/02/28 07:18:20;;;;;;;15.27;5.03;;;2.50;95.60;;;;;;5052917;28;20029;-72
2023/02/28 07:20:46;;;;;;;13.48;4.65;;;2.60;95.60;;;;;;5052474;28;20021;-75
2023/02/28 07:23:12;;;;;;;13.98;5.22;;;2.60;95.60;;;;;;5053429;28;20016;-71
2023/02/28 07:25:37;;;;;;;13.32;4.93;;;2.60;95.90;;;;;;5052877;28;20455;-72
2023/02/28 07:28:03;;;;;;;11.93;3.83;;;2.70;95.70;;;;;;5052942;28;20104;-70
2023/02/28 07:30:29;;;;;;;15.38;4.97;;;2.80;95.40;;;;;;5051251;28;20044;-71
2023/02/28 07:32:55;;;;;;;11.38;4.13;;;2.90;95.30;;;;;;5052589;28;20040;-72
2023/02/28 07:35:22;;;;;;;12.05;4.65;;;2.90;95.50;;;;;;5052329;28;20028;-72
2023/02/28 07:37:47;;;;;;;9.35;4.18;;;3.10;95.60;;;;;;5053076;28;20040;-72
2023/02/28 07:40:13;;;;;;;10.32;4.50;;;2.80;95.60;;;;;;5052027;28;20037;-72
2023/02/28 07:42:41;;;;;;;12.15;5.60;;;2.70;95.90;;;;;;5051104;28;20103;-73
2023/02/28 07:45:08;;;;;;;15.02;5.43;;;2.80;95.90;;;;;;5052551;28;20040;-72
2023/02/28 07:47:34;;;;;;;23.67;9.82;;;2.90;96.00;;;;;;5052232;28;20031;-71
2023/02/28 07:50:00;;;;;;;14.55;5.45;;;3.00;95.40;;;;;;5051364;28;20028;-71
2023/02/28 07:52:26;;;;;;;13.40;4.95;;;3.20;94.90;;;;;;5051977;28;20114;-71
2023/02/28 07:54:52;;;;;;;17.27;5.07;;;3.30;94.70;;;;;;5051915;28;20025;-71
2023/02/28 07:57:18;;;;;;;17.55;5.80;;;3.40;94.50;;;;;;5050592;28;20537;-72
2023/02/28 07:59:44;;;;;;;14.90;4.93;;;3.50;94.30;;;;;;5051609;28;20048;-72
2023/02/28 08:02:14;;;;;;;11.55;5.05;;;3.60;94.30;;;;;;5052360;28;20025;-73
2023/02/28 08:04:40;;;;;;;15.85;5.90;;;3.60;94.10;;;;;;5052305;28;20037;-71
2023/02/28 08:07:06;;;;;;;9.80;4.43;;;3.60;93.80;;;;;;5052111;28;20029;-72
2023/02/28 08:09:32;;;;;;;10.43;4.60;;;3.70;93.80;;;;;;5051745;28;20037;-71
2023/02/28 08:11:58;;;;;;;9.25;4.25;;;3.80;93.60;;;;;;5051970;28;20033;-70
2023/02/28 08:14:24;;;;;;;13.60;4.60;;;3.80;93.70;;;;;;5051465;28;20024;-71
2023/02/28 08:16:49;;;;;;;15.50;5.20;;;3.80;93.70;;;;;;5051155;28;20332;-72
2023/02/28 08:19:15;;;;;;;19.70;5.20;;;3.90;93.70;;;;;;5050182;28;20029;-74
2023/02/28 08:21:41;;;;;;;15.07;4.40;;;3.90;93.50;;;;;;5051199;28;20044;-73
2023/02/28 08:24:07;;;;;;;7.88;4.03;;;4.00;93.50;;;;;;5051084;28;20041;-75
2023/02/28 08:26:32;;;;;;;13.93;4.15;;;4.10;93.20;;;;;;5051324;28;20043;-71
2023/02/28 08:28:58;;;;;;;9.10;3.75;;;4.20;93.10;;;;;;5051407;28;20109;-73
2023/02/28 08:31:24;;;;;;;7.57;3.47;;;4.20;93.10;;;;;;5050319;28;20033;-71
2023/02/28 08:33:51;;;;;;;12.73;3.97;;;4.30;92.90;;;;;;5050067;28;20077;-72
2023/02/28 08:36:17;;;;;;;6.22;3.67;;;4.40;92.70;;;;;;5051007;28;20024;-74
2023/02/28 08:38:43;;;;;;;8.40;3.28;;;4.40;92.50;;;;;;5049904;28;20032;-72
2023/02/28 08:41:12;;;;;;;7.55;3.25;;;4.50;92.50;;;;;;5050280;28;20027;-72
2023/02/28 08:43:38;;;;;;;6.05;3.35;;;4.60;92.40;;;;;;5051401;28;20126;-73
2023/02/28 08:46:05;;;;;;;6.93;3.00;;;4.60;92.40;;;;;;5050900;28;20032;-72
2023/02/28 08:48:32;;;;;;;15.05;6.35;;;4.70;92.20;;;;;;5051002;28;20087;-72
2023/02/28 08:51:06;;;;;;;12.73;4.17;;;4.80;92.10;;;;;;5050952;28;20029;-71
2023/02/28 08:53:32;;;;;;;5.68;2.70;;;4.90;92.30;;;;;;5049690;28;20028;-72
2023/02/28 08:56:04;;;;;;;6.35;2.80;;;5.00;92.00;;;;;;5051281;28;20029;-73
2023/02/28 08:58:30;;;;;;;8.02;2.60;;;5.20;92.20;;;;;;5050323;28;20036;-71
2023/02/28 09:00:56;;;;;;;5.93;3.20;;;5.60;92.30;;;;;;5050250;28;20028;-73
2023/02/28 09:03:23;;;;;;;5.30;2.90;;;6.40;92.40;;;;;;5050761;28;20095;-71
2023/02/28 09:05:59;;;;;;;4.22;2.42;;;7.30;92.00;;;;;;5050719;28;20036;-71
2023/02/28 09:08:28;;;;;;;12.43;2.67;;;8.20;92.20;;;;;;5050335;28;20021;-71
2023/02/28 09:10:56;;;;;;;3.83;1.90;;;9.00;90.20;;;;;;5051113;28;20039;-72
2023/02/28 09:13:22;;;;;;;5.07;2.17;;;9.60;86.30;;;;;;5049504;28;20040;-72
2023/02/28 09:15:48;;;;;;;7.47;2.72;;;10.30;85.10;;;;;;5050506;28;20365;-73
2023/02/28 09:18:14;;;;;;;4.50;1.95;;;10.80;83.00;;;;;;5050615;28;20450;-75
2023/02/28 09:20:41;;;;;;;7.93;2.53;;;11.30;82.10;;;;;;5050510;28;20032;-74
2023/02/28 09:23:08;;;;;;;5.33;1.70;;;11.70;78.90;;;;;;5051095;28;20029;-75
2023/02/28 09:25:36;;;;;;;3.40;1.52;;;12.20;77.00;;;;;;5049360;28;20044;-73
2023/02/28 09:28:02;;;;;;;5.35;1.65;;;12.10;76.00;;;;;;5050596;28;20036;-73
2023/02/28 09:30:28;;;;;;;2.38;1.27;;;12.40;75.40;;;;;;5050484;28;20500;-77
2023/02/28 09:32:55;;;;;;;2.57;1.40;;;13.20;72.90;;;;;;5050737;28;20114;-74
2023/02/28 09:35:22;;;;;;;3.53;1.48;;;13.70;69.90;;;;;;5050327;28;20033;-74
2023/02/28 09:37:51;;;;;;;2.53;1.33;;;14.20;69.10;;;;;;5050826;28;20055;-74
2023/02/28 09:40:22;;;;;;;3.63;1.55;;;14.90;66.90;;;;;;5050578;28;20033;-75
2023/02/28 09:42:50;;;;;;;9.05;1.85;;;15.10;62.60;;;;;;5050561;28;20025;-73
2023/02/28 09:45:24;;;;;;;3.20;1.60;;;15.10;61.40;;;;;;5050470;28;20021;-74
2023/02/28 09:47:51;;;;;;;4.03;1.65;;;15.20;60.10;;;;;;5050433;28;20094;-75
2023/02/28 09:50:26;;;;;;;2.55;1.48;;;15.20;61.50;;;;;;5050334;28;20083;-75
2023/02/28 09:52:53;;;;;;;4.35;1.30;;;15.20;59.20;;;;;;5050796;28;20419;-75
2023/02/28 09:55:33;;;;;;;3.47;1.80;;;15.80;56.70;;;;;;5049195;28;20036;-74
2023/02/28 09:58:00;;;;;;;2.58;1.35;;;16.10;56.20;;;;;;5050338;28;20026;-75
2023/02/28 10:00:34;;;;;;;4.63;1.88;;;16.30;56.80;;;;;;5049261;28;20033;-75
2023/02/28 10:03:02;;;;;;;3.67;1.50;;;16.40;56.80;;;;;;5049234;28;20028;-75
2023/02/28 10:05:53;;;;;;;3.85;1.35;;;16.80;54.80;;;;;;5050510;28;20029;-74
2023/02/28 10:08:57;;;;;;;2.85;1.30;;;16.60;52.90;;;;;;5049899;28;20021;-74
2023/02/28 10:11:24;;;;;;;5.07;1.63;;;18.20;52.90;;;;;;5052458;28;20507;-72
2023/02/28 10:14:01;;;;;;;3.97;1.48;;;18.80;51.00;;;;;;5054658;28;20033;-74
2023/02/28 10:16:36;;;;;;;5.32;2.42;;;19.20;48.50;;;;;;5054120;28;20276;-74
2023/02/28 10:19:23;;;;;;;1.45;1.15;;;19.60;48.80;;;;;;5054106;28;20149;-74
2023/02/28 10:21:59;;;;;;;3.08;1.65;;;21.20;46.80;;;;;;5053868;28;20459;-75
2023/02/28 10:24:46;;;;;;;3.75;1.35;;;22.40;43.60;;;;;;5053264;28;20051;-76
2023/02/28 10:27:18;;;;;;;13.73;6.67;;;23.00;42.00;;;;;;5053886;28;20131;-72
2023/02/28 10:29:46;;;;;;;4.30;1.73;;;22.20;39.10;;;;;;5053671;28;20037;-76
2023/02/28 10:32:16;;;;;;;2.75;1.13;;;22.20;41.10;;;;;;5054467;28;20033;-78
2023/02/28 10:34:42;;;;;;;1.55;1.08;;;22.10;38.30;;;;;;5053854;28;20122;-72
2023/02/28 10:37:08;;;;;;;2.50;1.52;;;22.20;40.10;;;;;;5053714;28;20470;-74
2023/02/28 10:39:47;;;;;;;4.25;1.35;;;22.60;38.40;;;;;;5053622;28;20029;-76
2023/02/28 10:42:25;;;;;;;1.95;1.17;;;22.70;37.90;;;;;;5053590;28;20136;-76
2023/02/28 10:45:15;;;;;;;2.17;1.42;;;22.70;37.20;;;;;;5052462;28;20371;-75
2023/02/28 10:47:55;;;;;;;1.45;0.93;;;23.40;37.90;;;;;;5053426;28;20537;-76
2023/02/28 10:50:32;;;;;;;3.10;1.00;;;23.70;36.30;;;;;;5053227;28;20048;-71
2023/02/28 10:53:25;;;;;;;3.05;1.17;;;23.80;35.50;;;;;;5053675;28;20021;-72
2023/02/28 10:56:09;;;;;;;1.23;0.73;;;24.10;34.20;;;;;;5053541;28;20048;-72
2023/02/28 10:58:47;;;;;;;1.75;1.00;;;23.00;32.90;;;;;;5053072;28;20033;-71
2023/02/28 11:01:15;;;;;;;1.58;0.80;;;21.50;34.10;;;;;;5053134;28;20207;-74
2023/02/28 11:03:41;;;;;;;2.25;1.05;;;21.10;35.30;;;;;;5052948;28;20531;-73
2023/02/28 11:06:28;;;;;;;2.25;1.30;;;21.90;34.30;;;;;;5051866;28;20340;-73
2023/02/28 11:08:56;;;;;;;3.28;1.23;;;21.40;34.80;;;;;;5050966;28;20415;-73
2023/02/28 11:11:23;;;;;;;;;;;20.50;34.10;;;;;;5053546;28;20366;-73
2023/02/28 11:13:53;;;;;;;7.82;2.58;;;21.20;35.90;;;;;;5053244;28;20161;-74
2023/02/28 11:16:19;;;;;;;1.13;0.88;;;21.20;34.30;;;;;;5051643;28;20052;-74
2023/02/28 11:18:53;;;;;;;1.38;0.77;;;21.20;33.40;;;;;;5052659;28;20060;-72
2023/02/28 11:21:33;;;;;;;1.27;0.63;;;20.90;32.30;;;;;;5052458;28;20056;-72
2023/02/28 11:24:24;;;;;;;3.55;1.10;;;20.10;33.30;;;;;;5050777;28;20037;-72
2023/02/28 11:26:50;;;;;;;2.35;0.60;;;20.60;33.80;;;;;;5045732;28;20136;-77
2023/02/28 11:29:22;;;;;;;1.58;0.80;;;21.00;33.60;;;;;;5052311;28;20527;-73
2023/02/28 11:32:10;;;;;;;2.45;0.88;;;21.20;33.60;;;;;;5053072;28;20079;-73
2023/02/28 11:34:37;;;;;;;1.35;0.90;;;21.80;34.10;;;;;;5052531;28;20420;-72
2023/02/28 11:37:06;;;;;;;3.17;0.85;;;22.00;33.10;;;;;;5052771;28;20662;-74
2023/02/28 11:39:32;;;;;;;1.48;0.80;;;21.80;33.20;;;;;;5052535;28;20047;-72
2023/02/28 11:42:26;;;;;;;2.28;1.02;;;21.90;33.50;;;;;;5052412;28;20039;-73
2023/02/28 11:45:19;;;;;;;2.05;0.80;;;21.90;32.90;;;;;;5052317;28;20044;-73
2023/02/28 11:47:57;;;;;;;1.60;1.00;;;21.60;32.90;;;;;;5051113;28;20025;-73
2023/02/28 11:50:25;;;;;;;;;;;21.10;33.50;;;;;;5052639;28;20494;-72
2023/02/28 11:52:55;;;;;;;1.98;0.70;;;21.50;33.20;;;;;;5052645;28;19901;-74
2023/02/28 11:55:27;;;;;;;1.58;0.90;;;20.30;33.30;;;;;;5052183;28;20479;-73
2023/02/28 11:58:02;;;;;;;2.72;1.23;;;20.40;33.70;;;;;;5052319;28;20427;-74
2023/02/28 12:01:07;;;;;;;7.10;3.35;;;19.40;33.60;;;;;;5052136;28;20032;-73
2023/02/28 12:03:58;;;;;;;3.45;1.63;;;18.50;34.40;;;;;;5052040;28;20040;-73
2023/02/28 12:06:59;;;;;;;2.72;0.98;;;17.90;36.00;;;;;;5051897;28;20412;-72
2023/02/28 12:09:40;;;;;;;4.05;1.85;;;16.90;36.50;;;;;;5051837;28;20033;-73
2023/02/28 12:12:28;;;;;;;21.73;2.85;;;16.60;36.90;;;;;;5051936;28;20036;-74
2023/02/28 12:15:17;;;;;;;5.00;2.00;;;16.40;37.80;;;;;;5051690;28;20482;-73
2023/02/28 12:18:04;;;;;;;3.55;1.52;;;15.80;38.90;;;;;;5051403;28;20041;-75
2023/02/28 12:20:42;;;;;;;3.45;1.42;;;15.90;39.50;;;;;;5051356;28;20024;-70
2023/02/28 12:23:21;;;;;;;;;;;15.60;39.70;;;;;;5052559;28;20025;-74
2023/02/28 12:26:16;;;;;;;2.85;1.13;;;15.30;40.00;;;;;;5051996;28;19908;-74
2023/02/28 12:28:47;;;;;;;6.57;2.10;;;15.10;40.20;;;;;;5036080;28;20383;-73
2023/02/28 12:31:30;;;;;;;4.28;1.92;;;14.80;40.60;;;;;;5051497;28;20041;-74
2023/02/28 12:34:09;;;;;;;3.50;1.42;;;14.60;40.80;;;;;;5050386;28;20470;-75
2023/02/28 12:36:37;;;;;;;3.92;1.05;;;14.40;41.10;;;;;;5051156;28;20032;-74
2023/02/28 12:39:12;;;;;;;1.15;0.85;;;14.00;41.40;;;;;;5051225;28;20060;-74
2023/02/28 12:42:07;;;;;;;3.72;1.52;;;13.90;41.70;;;;;;5051122;28;20037;-75
2023/02/28 12:44:44;;;;;;;2.25;1.20;;;13.70;41.90;;;;;;5051179;28;20044;-75
2023/02/28 12:47:14;;;;;;;3.75;1.40;;;13.30;42.50;;;;;;5050423;28;20060;-73
2023/02/28 12:49:43;;;;;;;5.18;1.70;;;13.30;43.10;;;;;;5050869;28;20124;-75
2023/02/28 12:52:13;;;;;;;4.35;1.45;;;13.10;43.10;;;;;;5049686;28;20174;-74
2023/02/28 12:54:51;;;;;;;9.10;2.80;;;13.00;43.30;;;;;;5050920;28;20040;-73
2023/02/28 12:57:43;;;;;;;4.45;1.88;;;12.90;43.40;;;;;;5050627;28;20032;-74
2023/02/28 13:00:18;;;;;;;4.38;1.75;;;12.90;43.60;;;;;;5033967;28;20094;-74
2023/02/28 13:03:08;;;;;;;8.45;3.65;;;12.80;43.70;;;;;;5049660;28;20029;-73
2023/02/28 13:05:37;;;;;;;3.70;1.60;;;12.80;43.80;;;;;;5050561;28;20324;-75
2023/02/28 13:08:46;;;;;;;5.88;1.83;;;12.70;43.60;;;;;;5051068;28;20048;-73
2023/02/28 13:11:31;;;;;;;2.35;1.58;;;12.70;44.10;;;;;;5050300;28;20041;-73